sensor_id;sensor_type;location;lat;lon;timestamp;temperature;humidity
52273;DHT22;38227;50.942;4.016;2023-03-24T00:01:00;13.60;99.90
52273;DHT22;38227;50.942;4.016;2023-03-24T00:03:30;13.50;99.90
52273;DHT22;38227;50.942;4.016;2023-03-24T00:06:04;13.40;99.90
52273;DHT22;38227;50.942;4.016;2023-03-24T00:08:36;13.40;99.90
52273;DHT22;38227;50.942;4.016;2023-03-24T00:11:14;13.40;99.90
52273;DHT22;38227;50.942;4.016;2023-03-24T00:13:44;13.30;99.90
52273;DHT22;38227;50.942;4.016;2023-03-24T00:16:18;13.30;99.90
52273;DHT22;38227;50.942;4.016;2023-03-24T00:18:47;13.30;99.90
52273;DHT22;38227;50.942;4.016;2023-03-24T00:21:19;13.30;99.90
52273;DHT22;38227;50.942;4.016;2023-03-24T00:23:49;13.30;99.90
52273;DHT22;38227;50.942;4.016;2023-03-24T00:26:19;13.40;99.90
52273;DHT22;38227;50.942;4.016;2023-03-24T00:28:53;13.40;99.90
52273;DHT22;38227;50.942;4.016;2023-03-24T00:31:28;13.40;99.90
52273;DHT22;38227;50.942;4.016;2023-03-24T00:34:06;13.40;99.90
52273;DHT22;38227;50.942;4.016;2023-03-24T00:36:36;13.50;99.90
52273;DHT22;38227;50.942;4.016;2023-03-24T00:39:08;13.50;99.90
52273;DHT22;38227;50.942;4.016;2023-03-24T00:41:46;13.60;99.90
52273;DHT22;38227;50.942;4.016;2023-03-24T00:44:17;13.60;99.90
52273;DHT22;38227;50.942;4.016;2023-03-24T00:46:47;13.60;99.90
52273;DHT22;38227;50.942;4.016;2023-03-24T00:49:27;13.60;99.90
52273;DHT22;38227;50.942;4.016;2023-03-24T00:52:15;13.70;99.90
52273;DHT22;38227;50.942;4.016;2023-03-24T00:54:49;13.70;99.90
52273;DHT22;38227;50.942;4.016;2023-03-24T00:57:20;13.70;99.90
52273;DHT22;38227;50.942;4.016;2023-03-24T00:59:52;13.80;99.90
52273;DHT22;38227;50.942;4.016;2023-03-24T01:02:24;13.80;99.90
52273;DHT22;38227;50.942;4.016;2023-03-24T01:04:54;13.90;99.90
52273;DHT22;38227;50.942;4.016;2023-03-24T01:07:27;13.90;99.90
52273;DHT22;38227;50.942;4.016;2023-03-24T01:09:58;13.90;99.90
52273;DHT22;38227;50.942;4.016;2023-03-24T01:12:34;13.90;99.90
52273;DHT22;38227;50.942;4.016;2023-03-24T01:15:10;13.90;99.90
52273;DHT22;38227;50.942;4.016;2023-03-24T01:17:37;13.90;99.90
52273;DHT22;38227;50.942;4.016;2023-03-24T01:20:08;13.90;99.90
52273;DHT22;38227;50.942;4.016;2023-03-24T01:22:39;13.90;99.90
52273;DHT22;38227;50.942;4.016;2023-03-24T01:25:15;14.00;99.90
52273;DHT22;38227;50.942;4.016;2023-03-24T01:27:44;13.90;99.90
52273;DHT22;38227;50.942;4.016;2023-03-24T01:30:33;13.90;99.90
52273;DHT22;38227;50.942;4.016;2023-03-24T01:33:14;14.00;99.90
52273;DHT22;38227;50.942;4.016;2023-03-24T01:35:44;14.00;99.90
52273;DHT22;38227;50.942;4.016;2023-03-24T01:38:14;14.00;99.90
52273;DHT22;38227;50.942;4.016;2023-03-24T01:40:50;14.00;99.90
52273;DHT22;38227;50.942;4.016;2023-03-24T01:43:26;13.90;99.90
52273;DHT22;38227;50.942;4.016;2023-03-24T01:46:13;13.70;99.90
52273;DHT22;38227;50.942;4.016;2023-03-24T01:51:48;13.30;99.90
52273;DHT22;38227;50.942;4.016;2023-03-24T01:54:25;13.10;99.90
52273;DHT22;38227;50.942;4.016;2023-03-24T01:56:57;13.00;99.90
52273;DHT22;38227;50.942;4.016;2023-03-24T01:59:29;13.00;99.90
52273;DHT22;38227;50.942;4.016;2023-03-24T02:01:58;12.80;99.90
52273;DHT22;38227;50.942;4.016;2023-03-24T02:04:35;12.80;99.90
52273;DHT22;38227;50.942;4.016;2023-03-24T02:07:21;12.80;99.90
52273;DHT22;38227;50.942;4.016;2023-03-24T02:10:07;12.80;99.90
52273;DHT22;38227;50.942;4.016;2023-03-24T02:12:39;12.80;99.90
52273;DHT22;38227;50.942;4.016;2023-03-24T02:15:10;12.80;99.90
52273;DHT22;38227;50.942;4.016;2023-03-24T02:37:08;12.10;99.90
52273;DHT22;38227;50.942;4.016;2023-03-24T02:46:25;12.00;99.90
52273;DHT22;38227;50.942;4.016;2023-03-24T02:56:03;12.30;99.90
52273;DHT22;38227;50.942;4.016;2023-03-24T02:59:08;12.30;99.90
52273;DHT22;38227;50.942;4.016;2023-03-24T03:02:06;12.30;99.90
52273;DHT22;38227;50.942;4.016;2023-03-24T03:04:59;12.20;99.90
52273;DHT22;38227;50.942;4.016;2023-03-24T03:07:49;12.20;99.90
52273;DHT22;38227;50.942;4.016;2023-03-24T03:10:41;12.20;99.90
52273;DHT22;38227;50.942;4.016;2023-03-24T03:13:36;12.30;99.90
52273;DHT22;38227;50.942;4.016;2023-03-24T03:16:41;12.40;99.90
52273;DHT22;38227;50.942;4.016;2023-03-24T03:19:15;12.40;99.90
52273;DHT22;38227;50.942;4.016;2023-03-24T03:22:07;12.30;99.90
52273;DHT22;38227;50.942;4.016;2023-03-24T03:25:03;12.20;99.90
52273;DHT22;38227;50.942;4.016;2023-03-24T03:28:00;12.30;99.90
52273;DHT22;38227;50.942;4.016;2023-03-24T03:30:56;12.20;99.90
52273;DHT22;38227;50.942;4.016;2023-03-24T03:33:56;12.20;99.90
52273;DHT22;38227;50.942;4.016;2023-03-24T03:37:00;12.10;99.90
52273;DHT22;38227;50.942;4.016;2023-03-24T03:39:34;12.10;99.90
52273;DHT22;38227;50.942;4.016;2023-03-24T03:42:24;12.10;99.90
52273;DHT22;38227;50.942;4.016;2023-03-24T03:45:33;12.10;99.90
52273;DHT22;38227;50.942;4.016;2023-03-24T03:48:26;12.00;99.90
52273;DHT22;38227;50.942;4.016;2023-03-24T03:51:16;12.10;99.90
52273;DHT22;38227;50.942;4.016;2023-03-24T03:54:16;12.10;99.90
52273;DHT22;38227;50.942;4.016;2023-03-24T03:57:07;12.10;99.90
52273;DHT22;38227;50.942;4.016;2023-03-24T03:59:38;12.10;99.90
52273;DHT22;38227;50.942;4.016;2023-03-24T04:06:27;12.10;99.90
52273;DHT22;38227;50.942;4.016;2023-03-24T04:08:56;12.10;99.90
52273;DHT22;38227;50.942;4.016;2023-03-24T04:25:18;12.10;99.90
52273;DHT22;38227;50.942;4.016;2023-03-24T04:32:14;12.30;99.90
52273;DHT22;38227;50.942;4.016;2023-03-24T04:35:34;12.20;99.90
52273;DHT22;38227;50.942;4.016;2023-03-24T04:38:29;12.20;99.90
52273;DHT22;38227;50.942;4.016;2023-03-24T04:41:20;12.10;99.90
52273;DHT22;38227;50.942;4.016;2023-03-24T04:43:52;12.10;99.90
52273;DHT22;38227;50.942;4.016;2023-03-24T04:46:22;12.00;99.90
52273;DHT22;38227;50.942;4.016;2023-03-24T04:49:09;12.10;99.90
52273;DHT22;38227;50.942;4.016;2023-03-24T04:51:51;12.10;99.90
52273;DHT22;38227;50.942;4.016;2023-03-24T04:54:33;11.90;99.90
52273;DHT22;38227;50.942;4.016;2023-03-24T04:57:16;11.90;99.90
52273;DHT22;38227;50.942;4.016;2023-03-24T04:59:58;12.00;99.90
52273;DHT22;38227;50.942;4.016;2023-03-24T05:02:41;12.00;99.90
52273;DHT22;38227;50.942;4.016;2023-03-24T05:05:10;11.90;99.90
52273;DHT22;38227;50.942;4.016;2023-03-24T05:07:49;11.80;99.90
52273;DHT22;38227;50.942;4.016;2023-03-24T05:10:18;11.70;99.90
52273;DHT22;38227;50.942;4.016;2023-03-24T05:12:46;11.60;99.90
52273;DHT22;38227;50.942;4.016;2023-03-24T05:15:19;11.70;99.90
52273;DHT22;38227;50.942;4.016;2023-03-24T05:17:48;11.70;99.90
52273;DHT22;38227;50.942;4.016;2023-03-24T05:20:17;11.60;99.90
52273;DHT22;38227;50.942;4.016;2023-03-24T05:22:46;11.70;99.90
52273;DHT22;38227;50.942;4.016;2023-03-24T05:25:34;11.70;99.90
52273;DHT22;38227;50.942;4.016;2023-03-24T05:28:03;11.70;99.90
52273;DHT22;38227;50.942;4.016;2023-03-24T05:30:39;11.60;99.90
52273;DHT22;38227;50.942;4.016;2023-03-24T05:33:10;11.60;99.90
52273;DHT22;38227;50.942;4.016;2023-03-24T05:35:49;11.50;99.90
52273;DHT22;38227;50.942;4.016;2023-03-24T05:38:18;11.50;99.90
52273;DHT22;38227;50.942;4.016;2023-03-24T05:40:56;11.60;99.90
52273;DHT22;38227;50.942;4.016;2023-03-24T05:43:25;11.60;99.90
52273;DHT22;38227;50.942;4.016;2023-03-24T05:45:54;11.60;99.90
52273;DHT22;38227;50.942;4.016;2023-03-24T05:48:27;11.50;99.90
52273;DHT22;38227;50.942;4.016;2023-03-24T05:51:09;11.40;99.90
52273;DHT22;38227;50.942;4.016;2023-03-24T05:53:38;11.40;99.90
52273;DHT22;38227;50.942;4.016;2023-03-24T05:56:07;11.30;99.90
52273;DHT22;38227;50.942;4.016;2023-03-24T05:58:38;11.30;99.90
52273;DHT22;38227;50.942;4.016;2023-03-24T06:01:10;11.40;99.90
52273;DHT22;38227;50.942;4.016;2023-03-24T06:03:38;11.40;99.90
52273;DHT22;38227;50.942;4.016;2023-03-24T06:06:09;11.40;99.90
52273;DHT22;38227;50.942;4.016;2023-03-24T06:08:42;11.30;99.90
52273;DHT22;38227;50.942;4.016;2023-03-24T06:11:12;11.30;99.90
52273;DHT22;38227;50.942;4.016;2023-03-24T06:13:44;11.30;99.90
52273;DHT22;38227;50.942;4.016;2023-03-24T06:16:14;11.30;99.90
52273;DHT22;38227;50.942;4.016;2023-03-24T06:18:47;11.40;99.90
52273;DHT22;38227;50.942;4.016;2023-03-24T06:21:17;11.50;99.90
52273;DHT22;38227;50.942;4.016;2023-03-24T06:23:45;11.50;99.90
52273;DHT22;38227;50.942;4.016;2023-03-24T06:26:16;11.50;99.90
52273;DHT22;38227;50.942;4.016;2023-03-24T06:28:48;11.50;99.90
52273;DHT22;38227;50.942;4.016;2023-03-24T06:31:24;11.40;99.90
52273;DHT22;38227;50.942;4.016;2023-03-24T06:33:54;11.50;99.90
52273;DHT22;38227;50.942;4.016;2023-03-24T06:36:26;11.70;99.90
52273;DHT22;38227;50.942;4.016;2023-03-24T06:38:55;11.80;99.90
52273;DHT22;38227;50.942;4.016;2023-03-24T06:41:27;11.80;99.90
52273;DHT22;38227;50.942;4.016;2023-03-24T06:43:56;11.80;99.90
52273;DHT22;38227;50.942;4.016;2023-03-24T06:46:26;11.90;99.90
52273;DHT22;38227;50.942;4.016;2023-03-24T06:49:00;12.00;99.90
52273;DHT22;38227;50.942;4.016;2023-03-24T06:51:28;12.10;99.90
52273;DHT22;38227;50.942;4.016;2023-03-24T06:53:57;12.20;99.90
52273;DHT22;38227;50.942;4.016;2023-03-24T06:56:25;12.30;99.90
52273;DHT22;38227;50.942;4.016;2023-03-24T06:58:56;12.30;99.90
52273;DHT22;38227;50.942;4.016;2023-03-24T07:01:49;12.30;99.90
52273;DHT22;38227;50.942;4.016;2023-03-24T07:04:17;12.30;99.90
52273;DHT22;38227;50.942;4.016;2023-03-24T07:06:46;12.20;99.90
52273;DHT22;38227;50.942;4.016;2023-03-24T07:09:15;12.20;99.90
52273;DHT22;38227;50.942;4.016;2023-03-24T07:11:45;12.20;99.90
52273;DHT22;38227;50.942;4.016;2023-03-24T07:14:15;12.10;99.90
52273;DHT22;38227;50.942;4.016;2023-03-24T07:16:50;12.10;99.90
52273;DHT22;38227;50.942;4.016;2023-03-24T07:19:20;12.20;99.90
52273;DHT22;38227;50.942;4.016;2023-03-24T07:21:52;12.30;99.90
52273;DHT22;38227;50.942;4.016;2023-03-24T07:24:20;12.30;99.90
52273;DHT22;38227;50.942;4.016;2023-03-24T07:26:50;12.30;99.90
52273;DHT22;38227;50.942;4.016;2023-03-24T07:29:23;12.40;99.90
52273;DHT22;38227;50.942;4.016;2023-03-24T07:31:52;12.50;99.90
52273;DHT22;38227;50.942;4.016;2023-03-24T07:34:24;12.60;99.90
52273;DHT22;38227;50.942;4.016;2023-03-24T07:37:09;12.60;99.90
52273;DHT22;38227;50.942;4.016;2023-03-24T07:39:46;12.90;99.90
52273;DHT22;38227;50.942;4.016;2023-03-24T07:42:14;13.40;99.90
52273;DHT22;38227;50.942;4.016;2023-03-24T07:44:44;14.20;99.90
52273;DHT22;38227;50.942;4.016;2023-03-24T07:47:13;15.20;99.90
52273;DHT22;38227;50.942;4.016;2023-03-24T07:49:52;16.20;99.90
52273;DHT22;38227;50.942;4.016;2023-03-24T07:52:21;16.60;99.90
52273;DHT22;38227;50.942;4.016;2023-03-24T07:54:53;16.20;99.90
52273;DHT22;38227;50.942;4.016;2023-03-24T07:57:22;15.70;99.90
52273;DHT22;38227;50.942;4.016;2023-03-24T07:59:54;16.00;99.90
52273;DHT22;38227;50.942;4.016;2023-03-24T08:02:26;16.50;99.90
52273;DHT22;38227;50.942;4.016;2023-03-24T08:04:59;16.60;99.90
52273;DHT22;38227;50.942;4.016;2023-03-24T08:07:31;17.00;99.90
52273;DHT22;38227;50.942;4.016;2023-03-24T08:10:01;16.60;99.90
52273;DHT22;38227;50.942;4.016;2023-03-24T08:12:30;16.50;99.90
52273;DHT22;38227;50.942;4.016;2023-03-24T08:15:02;16.60;99.90
52273;DHT22;38227;50.942;4.016;2023-03-24T08:17:31;17.30;99.90
52273;DHT22;38227;50.942;4.016;2023-03-24T08:20:06;17.90;99.90
52273;DHT22;38227;50.942;4.016;2023-03-24T08:22:40;18.30;99.90
52273;DHT22;38227;50.942;4.016;2023-03-24T08:25:09;18.30;99.90
52273;DHT22;38227;50.942;4.016;2023-03-24T08:27:43;17.90;99.90
52273;DHT22;38227;50.942;4.016;2023-03-24T08:30:19;17.30;99.90
52273;DHT22;38227;50.942;4.016;2023-03-24T08:32:56;17.10;99.90
52273;DHT22;38227;50.942;4.016;2023-03-24T08:35:33;17.00;99.90
52273;DHT22;38227;50.942;4.016;2023-03-24T08:38:09;16.90;99.90
52273;DHT22;38227;50.942;4.016;2023-03-24T08:40:40;16.50;99.90
52273;DHT22;38227;50.942;4.016;2023-03-24T08:43:14;16.00;99.90
52273;DHT22;38227;50.942;4.016;2023-03-24T08:45:45;15.60;99.90
52273;DHT22;38227;50.942;4.016;2023-03-24T08:48:25;14.90;99.90
52273;DHT22;38227;50.942;4.016;2023-03-24T08:51:10;14.50;99.90
52273;DHT22;38227;50.942;4.016;2023-03-24T08:53:57;15.00;99.90
52273;DHT22;38227;50.942;4.016;2023-03-24T08:56:31;15.00;99.90
52273;DHT22;38227;50.942;4.016;2023-03-24T08:59:04;15.00;99.90
52273;DHT22;38227;50.942;4.016;2023-03-24T09:01:41;14.90;99.90
52273;DHT22;38227;50.942;4.016;2023-03-24T09:04:13;14.80;99.90
52273;DHT22;38227;50.942;4.016;2023-03-24T09:06:51;15.40;99.90
52273;DHT22;38227;50.942;4.016;2023-03-24T09:09:25;16.10;99.90
52273;DHT22;38227;50.942;4.016;2023-03-24T09:11:54;17.20;99.90
52273;DHT22;38227;50.942;4.016;2023-03-24T09:14:22;17.50;99.90
52273;DHT22;38227;50.942;4.016;2023-03-24T09:17:00;17.60;99.90
52273;DHT22;38227;50.942;4.016;2023-03-24T09:19:29;17.90;99.90
52273;DHT22;38227;50.942;4.016;2023-03-24T09:21:59;18.10;99.90
52273;DHT22;38227;50.942;4.016;2023-03-24T09:24:29;18.40;99.90
52273;DHT22;38227;50.942;4.016;2023-03-24T09:26:57;18.80;99.90
52273;DHT22;38227;50.942;4.016;2023-03-24T09:29:28;19.30;99.00
52273;DHT22;38227;50.942;4.016;2023-03-24T09:31:57;19.40;97.90
52273;DHT22;38227;50.942;4.016;2023-03-24T09:34:36;18.80;98.40
52273;DHT22;38227;50.942;4.016;2023-03-24T09:37:07;18.70;99.80
52273;DHT22;38227;50.942;4.016;2023-03-24T09:39:36;18.60;98.70
52273;DHT22;38227;50.942;4.016;2023-03-24T09:42:06;18.30;98.80
52273;DHT22;38227;50.942;4.016;2023-03-24T09:44:45;17.70;99.30
52273;DHT22;38227;50.942;4.016;2023-03-24T09:47:37;17.30;99.90
52273;DHT22;38227;50.942;4.016;2023-03-24T09:50:28;16.70;99.90
52273;DHT22;38227;50.942;4.016;2023-03-24T09:53:06;16.80;99.90
52273;DHT22;38227;50.942;4.016;2023-03-24T09:55:37;17.50;99.90
52273;DHT22;38227;50.942;4.016;2023-03-24T09:58:09;18.30;99.50
52273;DHT22;38227;50.942;4.016;2023-03-24T10:00:38;18.40;98.20
52273;DHT22;38227;50.942;4.016;2023-03-24T10:03:29;18.40;98.60
52273;DHT22;38227;50.942;4.016;2023-03-24T10:06:08;17.80;99.10
52273;DHT22;38227;50.942;4.016;2023-03-24T10:09:30;17.20;99.70
52273;DHT22;38227;50.942;4.016;2023-03-24T10:15:25;15.80;99.90
52273;DHT22;38227;50.942;4.016;2023-03-24T10:21:20;16.50;99.90
52273;DHT22;38227;50.942;4.016;2023-03-24T10:24:17;16.20;99.90
52273;DHT22;38227;50.942;4.016;2023-03-24T10:30:13;15.80;99.90
52273;DHT22;38227;50.942;4.016;2023-03-24T10:32:45;15.80;99.90
52273;DHT22;38227;50.942;4.016;2023-03-24T10:35:36;15.70;99.90
52273;DHT22;38227;50.942;4.016;2023-03-24T10:38:18;16.10;99.90
52273;DHT22;38227;50.942;4.016;2023-03-24T10:40:48;16.30;99.90
52273;DHT22;38227;50.942;4.016;2023-03-24T10:43:18;16.10;99.90
52273;DHT22;38227;50.942;4.016;2023-03-24T10:45:52;16.20;99.90
52273;DHT22;38227;50.942;4.016;2023-03-24T10:48:46;16.30;99.90
52273;DHT22;38227;50.942;4.016;2023-03-24T10:54:30;15.80;99.90
52273;DHT22;38227;50.942;4.016;2023-03-24T10:57:18;15.70;99.90
52273;DHT22;38227;50.942;4.016;2023-03-24T11:00:07;15.50;99.90
52273;DHT22;38227;50.942;4.016;2023-03-24T11:02:41;15.00;99.90
52273;DHT22;38227;50.942;4.016;2023-03-24T11:05:32;14.50;99.90
52273;DHT22;38227;50.942;4.016;2023-03-24T11:08:33;13.70;99.90
52273;DHT22;38227;50.942;4.016;2023-03-24T11:11:00;13.00;99.90
52273;DHT22;38227;50.942;4.016;2023-03-24T11:13:59;12.80;99.90
52273;DHT22;38227;50.942;4.016;2023-03-24T11:16:36;12.60;99.90
52273;DHT22;38227;50.942;4.016;2023-03-24T11:19:09;12.50;99.90
52273;DHT22;38227;50.942;4.016;2023-03-24T11:21:44;12.40;99.90
52273;DHT22;38227;50.942;4.016;2023-03-24T11:24:15;12.40;99.90
52273;DHT22;38227;50.942;4.016;2023-03-24T11:27:05;12.50;99.90
52273;DHT22;38227;50.942;4.016;2023-03-24T11:29:39;12.60;99.90
52273;DHT22;38227;50.942;4.016;2023-03-24T11:32:17;12.70;99.90
52273;DHT22;38227;50.942;4.016;2023-03-24T11:34:48;12.90;99.90
52273;DHT22;38227;50.942;4.016;2023-03-24T11:37:23;13.20;99.90
52273;DHT22;38227;50.942;4.016;2023-03-24T11:43:03;13.80;99.90
52273;DHT22;38227;50.942;4.016;2023-03-24T11:45:42;13.90;99.90
52273;DHT22;38227;50.942;4.016;2023-03-24T11:48:58;14.10;99.90
52273;DHT22;38227;50.942;4.016;2023-03-24T11:51:31;14.20;99.90
52273;DHT22;38227;50.942;4.016;2023-03-24T11:54:05;14.40;99.90
52273;DHT22;38227;50.942;4.016;2023-03-24T11:56:47;14.40;99.90
52273;DHT22;38227;50.942;4.016;2023-03-24T11:59:48;14.30;99.90
52273;DHT22;38227;50.942;4.016;2023-03-24T12:02:39;14.00;99.90
52273;DHT22;38227;50.942;4.016;2023-03-24T12:09:06;13.20;99.90
52273;DHT22;38227;50.942;4.016;2023-03-24T12:15:18;12.60;99.90
52273;DHT22;38227;50.942;4.016;2023-03-24T12:24:06;13.30;99.90
52273;DHT22;38227;50.942;4.016;2023-03-24T12:26:38;13.50;99.90
52273;DHT22;38227;50.942;4.016;2023-03-24T12:39:58;14.10;99.90
52273;DHT22;38227;50.942;4.016;2023-03-24T12:45:49;14.30;99.90
52273;DHT22;38227;50.942;4.016;2023-03-24T13:01:38;14.70;99.90
52273;DHT22;38227;50.942;4.016;2023-03-24T13:04:29;14.70;99.90
52273;DHT22;38227;50.942;4.016;2023-03-24T13:07:19;14.90;99.90
52273;DHT22;38227;50.942;4.016;2023-03-24T13:10:16;15.00;99.90
52273;DHT22;38227;50.942;4.016;2023-03-24T13:13:00;14.90;99.90
52273;DHT22;38227;50.942;4.016;2023-03-24T13:15:58;14.80;99.90
52273;DHT22;38227;50.942;4.016;2023-03-24T13:18:48;14.90;99.90
52273;DHT22;38227;50.942;4.016;2023-03-24T13:21:25;14.90;99.90
52273;DHT22;38227;50.942;4.016;2023-03-24T13:33:01;15.70;99.90
52273;DHT22;38227;50.942;4.016;2023-03-24T13:38:50;15.60;99.90
52273;DHT22;38227;50.942;4.016;2023-03-24T13:41:19;15.50;99.90
52273;DHT22;38227;50.942;4.016;2023-03-24T13:44:05;15.50;99.90
52273;DHT22;38227;50.942;4.016;2023-03-24T13:46:41;15.30;99.90
52273;DHT22;38227;50.942;4.016;2023-03-24T13:49:13;15.20;99.90
52273;DHT22;38227;50.942;4.016;2023-03-24T13:51:45;15.40;99.90
52273;DHT22;38227;50.942;4.016;2023-03-24T13:54:24;15.70;99.90
52273;DHT22;38227;50.942;4.016;2023-03-24T13:57:13;15.80;99.90
52273;DHT22;38227;50.942;4.016;2023-03-24T14:06:00;15.50;99.90
52273;DHT22;38227;50.942;4.016;2023-03-24T14:18:43;15.40;99.90
52273;DHT22;38227;50.942;4.016;2023-03-24T14:21:15;15.60;99.90
52273;DHT22;38227;50.942;4.016;2023-03-24T14:23:56;15.70;99.90
52273;DHT22;38227;50.942;4.016;2023-03-24T14:26:32;15.80;99.90
52273;DHT22;38227;50.942;4.016;2023-03-24T14:29:01;15.90;99.90
52273;DHT22;38227;50.942;4.016;2023-03-24T14:31:36;15.70;99.90
52273;DHT22;38227;50.942;4.016;2023-03-24T14:34:17;15.60;99.90
52273;DHT22;38227;50.942;4.016;2023-03-24T14:37:00;15.50;99.90
52273;DHT22;38227;50.942;4.016;2023-03-24T14:39:34;15.40;99.90
52273;DHT22;38227;50.942;4.016;2023-03-24T14:45:54;15.40;99.90
52273;DHT22;38227;50.942;4.016;2023-03-24T14:49:29;15.40;99.90
52273;DHT22;38227;50.942;4.016;2023-03-24T14:51:55;15.40;99.90
52273;DHT22;38227;50.942;4.016;2023-03-24T14:54:37;15.60;99.90
52273;DHT22;38227;50.942;4.016;2023-03-24T14:57:28;15.80;99.90
52273;DHT22;38227;50.942;4.016;2023-03-24T15:00:21;15.90;99.90
52273;DHT22;38227;50.942;4.016;2023-03-24T15:06:20;15.60;99.90
52273;DHT22;38227;50.942;4.016;2023-03-24T15:08:53;15.50;99.90
52273;DHT22;38227;50.942;4.016;2023-03-24T15:11:26;15.70;99.90
52273;DHT22;38227;50.942;4.016;2023-03-24T15:13:55;15.90;99.90
52273;DHT22;38227;50.942;4.016;2023-03-24T15:16:28;15.80;99.90
52273;DHT22;38227;50.942;4.016;2023-03-24T15:19:25;15.80;99.90
52273;DHT22;38227;50.942;4.016;2023-03-24T15:22:11;15.70;99.90
52273;DHT22;38227;50.942;4.016;2023-03-24T15:24:42;15.70;99.90
52273;DHT22;38227;50.942;4.016;2023-03-24T15:27:20;15.70;99.90
52273;DHT22;38227;50.942;4.016;2023-03-24T15:29:55;15.60;99.90
52273;DHT22;38227;50.942;4.016;2023-03-24T15:32:24;15.40;99.90
52273;DHT22;38227;50.942;4.016;2023-03-24T15:34:59;15.30;99.90
52273;DHT22;38227;50.942;4.016;2023-03-24T15:37:39;15.20;99.90
52273;DHT22;38227;50.942;4.016;2023-03-24T15:40:51;15.30;99.90
52273;DHT22;38227;50.942;4.016;2023-03-24T15:43:21;15.50;99.90
52273;DHT22;38227;50.942;4.016;2023-03-24T15:45:53;15.50;99.90
52273;DHT22;38227;50.942;4.016;2023-03-24T15:48:30;15.50;99.90
52273;DHT22;38227;50.942;4.016;2023-03-24T15:51:03;15.40;99.90
52273;DHT22;38227;50.942;4.016;2023-03-24T15:53:46;15.30;99.90
52273;DHT22;38227;50.942;4.016;2023-03-24T15:56:23;15.20;99.90
52273;DHT22;38227;50.942;4.016;2023-03-24T15:59:13;15.20;99.90
52273;DHT22;38227;50.942;4.016;2023-03-24T16:01:43;15.20;99.90
52273;DHT22;38227;50.942;4.016;2023-03-24T16:04:19;14.90;99.90
52273;DHT22;38227;50.942;4.016;2023-03-24T16:06:52;14.80;99.90
52273;DHT22;38227;50.942;4.016;2023-03-24T16:09:34;14.60;99.90
52273;DHT22;38227;50.942;4.016;2023-03-24T16:12:10;14.40;99.90
52273;DHT22;38227;50.942;4.016;2023-03-24T16:14:41;14.30;99.90
52273;DHT22;38227;50.942;4.016;2023-03-24T16:17:20;14.30;99.90
52273;DHT22;38227;50.942;4.016;2023-03-24T16:19:49;14.50;99.90
52273;DHT22;38227;50.942;4.016;2023-03-24T16:22:29;14.30;99.90
52273;DHT22;38227;50.942;4.016;2023-03-24T16:24:57;14.40;99.90
52273;DHT22;38227;50.942;4.016;2023-03-24T16:27:30;14.40;99.90
52273;DHT22;38227;50.942;4.016;2023-03-24T16:29:59;14.40;99.90
52273;DHT22;38227;50.942;4.016;2023-03-24T16:32:27;14.50;99.90
52273;DHT22;38227;50.942;4.016;2023-03-24T16:35:00;14.40;99.90
52273;DHT22;38227;50.942;4.016;2023-03-24T16:37:29;14.20;99.90
52273;DHT22;38227;50.942;4.016;2023-03-24T16:40:00;13.90;99.90
52273;DHT22;38227;50.942;4.016;2023-03-24T16:42:31;13.80;99.90
52273;DHT22;38227;50.942;4.016;2023-03-24T16:45:00;13.60;99.90
52273;DHT22;38227;50.942;4.016;2023-03-24T16:47:30;13.50;99.90
52273;DHT22;38227;50.942;4.016;2023-03-24T16:50:19;13.50;99.90
52273;DHT22;38227;50.942;4.016;2023-03-24T16:52:50;13.40;99.90
52273;DHT22;38227;50.942;4.016;2023-03-24T16:55:17;13.40;99.90
52273;DHT22;38227;50.942;4.016;2023-03-24T16:57:46;13.40;99.90
52273;DHT22;38227;50.942;4.016;2023-03-24T17:00:16;13.40;99.90
52273;DHT22;38227;50.942;4.016;2023-03-24T17:02:47;13.30;99.90
52273;DHT22;38227;50.942;4.016;2023-03-24T17:05:28;13.30;99.90
52273;DHT22;38227;50.942;4.016;2023-03-24T17:07:58;13.20;99.90
52273;DHT22;38227;50.942;4.016;2023-03-24T17:10:29;13.20;99.90
52273;DHT22;38227;50.942;4.016;2023-03-24T17:13:02;13.20;99.90
52273;DHT22;38227;50.942;4.016;2023-03-24T17:15:31;13.00;99.90
52273;DHT22;38227;50.942;4.016;2023-03-24T17:18:00;12.90;99.90
52273;DHT22;38227;50.942;4.016;2023-03-24T17:20:31;12.70;99.90
52273;DHT22;38227;50.942;4.016;2023-03-24T17:23:14;12.80;99.90
52273;DHT22;38227;50.942;4.016;2023-03-24T17:25:45;12.90;99.90
52273;DHT22;38227;50.942;4.016;2023-03-24T17:28:27;12.90;99.90
52273;DHT22;38227;50.942;4.016;2023-03-24T17:30:56;12.90;99.90
52273;DHT22;38227;50.942;4.016;2023-03-24T17:33:28;12.90;99.90
52273;DHT22;38227;50.942;4.016;2023-03-24T17:35:56;12.80;99.90
52273;DHT22;38227;50.942;4.016;2023-03-24T17:38:24;12.90;99.90
52273;DHT22;38227;50.942;4.016;2023-03-24T17:41:02;12.80;99.90
52273;DHT22;38227;50.942;4.016;2023-03-24T17:43:31;12.80;99.90
52273;DHT22;38227;50.942;4.016;2023-03-24T17:46:01;12.70;99.90
52273;DHT22;38227;50.942;4.016;2023-03-24T17:48:30;12.70;99.90
52273;DHT22;38227;50.942;4.016;2023-03-24T17:51:03;12.80;99.90
52273;DHT22;38227;50.942;4.016;2023-03-24T17:53:31;12.70;99.90
52273;DHT22;38227;50.942;4.016;2023-03-24T17:56:00;12.60;99.90
52273;DHT22;38227;50.942;4.016;2023-03-24T17:58:32;12.60;99.90
52273;DHT22;38227;50.942;4.016;2023-03-24T18:01:05;12.60;99.90
52273;DHT22;38227;50.942;4.016;2023-03-24T18:03:35;12.60;99.90
52273;DHT22;38227;50.942;4.016;2023-03-24T18:06:09;12.50;99.90
52273;DHT22;38227;50.942;4.016;2023-03-24T18:08:40;12.40;99.90
52273;DHT22;38227;50.942;4.016;2023-03-24T18:11:12;12.40;99.90
52273;DHT22;38227;50.942;4.016;2023-03-24T18:13:44;12.40;99.90
52273;DHT22;38227;50.942;4.016;2023-03-24T18:16:24;12.20;99.90
52273;DHT22;38227;50.942;4.016;2023-03-24T18:18:55;12.20;99.90
52273;DHT22;38227;50.942;4.016;2023-03-24T18:21:29;12.10;99.90
52273;DHT22;38227;50.942;4.016;2023-03-24T18:23:57;12.10;99.90
52273;DHT22;38227;50.942;4.016;2023-03-24T18:26:37;12.10;99.90
52273;DHT22;38227;50.942;4.016;2023-03-24T18:29:04;12.00;99.90
52273;DHT22;38227;50.942;4.016;2023-03-24T18:31:34;12.10;99.90
52273;DHT22;38227;50.942;4.016;2023-03-24T18:34:09;12.00;99.90
52273;DHT22;38227;50.942;4.016;2023-03-24T18:36:38;12.10;99.90
52273;DHT22;38227;50.942;4.016;2023-03-24T18:39:08;12.10;99.90
52273;DHT22;38227;50.942;4.016;2023-03-24T18:41:45;12.10;99.90
52273;DHT22;38227;50.942;4.016;2023-03-24T18:44:19;12.00;99.90
52273;DHT22;38227;50.942;4.016;2023-03-24T18:46:56;12.00;99.90
52273;DHT22;38227;50.942;4.016;2023-03-24T18:49:31;11.90;99.90
52273;DHT22;38227;50.942;4.016;2023-03-24T18:52:10;11.80;99.90
52273;DHT22;38227;50.942;4.016;2023-03-24T18:54:46;11.60;99.90
52273;DHT22;38227;50.942;4.016;2023-03-24T18:57:18;11.60;99.90
52273;DHT22;38227;50.942;4.016;2023-03-24T18:59:51;11.60;99.90